createdAt,value
2019-03-11T00:02:24.959Z,8.97
2019-03-11T00:04:55.938Z,11.40
2019-03-11T00:07:27.001Z,10.17
2019-03-11T00:09:58.072Z,10.73
2019-03-11T00:12:29.148Z,11.63
2019-03-11T00:15:00.661Z,8.93
2019-03-11T00:17:31.954Z,11.03
2019-03-11T00:20:04.248Z,10.33
2019-03-11T00:22:35.258Z,8.73
2019-03-11T00:25:07.220Z,11.33
2019-03-11T00:27:38.869Z,7.37
2019-03-11T00:30:10.826Z,9.17
2019-03-11T00:32:42.170Z,8.03
2019-03-11T00:35:13.558Z,8.00
2019-03-11T00:37:45.189Z,9.17
2019-03-11T00:40:16.554Z,9.07
2019-03-11T00:42:47.894Z,6.43
2019-03-11T00:45:19.388Z,7.60
2019-03-11T00:48:01.056Z,8.30
2019-03-11T00:50:23.931Z,9.73
2019-03-11T00:52:55.323Z,8.57
2019-03-11T00:55:26.732Z,6.60
2019-03-11T00:57:58.102Z,5.57
2019-03-11T01:00:32.176Z,6.77
2019-03-11T01:03:03.605Z,6.60
2019-03-11T01:05:34.912Z,12.63
2019-03-11T01:08:06.097Z,7.10
2019-03-11T01:10:37.141Z,6.50
2019-03-11T01:13:08.418Z,6.23
2019-03-11T01:15:39.470Z,6.80
2019-03-11T01:18:10.617Z,8.40
2019-03-11T01:20:42.792Z,6.00
2019-03-11T01:23:13.877Z,4.57
2019-03-11T01:25:45.172Z,6.43
2019-03-11T01:28:16.552Z,5.50
2019-03-11T01:30:47.574Z,5.77
2019-03-11T01:33:18.753Z,6.30
2019-03-11T01:35:49.992Z,5.37
2019-03-11T01:38:20.905Z,5.10
2019-03-11T01:40:52.019Z,7.90
2019-03-11T01:43:23.354Z,5.03
2019-03-11T01:45:54.687Z,6.83
2019-03-11T01:48:26.027Z,6.77
2019-03-11T01:50:56.943Z,6.33
2019-03-11T01:53:27.870Z,5.53
2019-03-11T01:56:00.021Z,6.33
2019-03-11T01:58:31.356Z,6.40
2019-03-11T02:01:02.413Z,7.23
2019-03-11T02:03:34.088Z,8.55
2019-03-11T02:06:05.503Z,8.87
2019-03-11T02:08:36.559Z,5.40
2019-03-11T02:11:08.170Z,9.58
2019-03-11T02:13:39.383Z,7.13
2019-03-11T02:16:10.880Z,6.00
2019-03-11T02:18:41.950Z,7.43
2019-03-11T02:21:13.367Z,7.05
2019-03-11T02:23:44.901Z,7.65
2019-03-11T02:26:16.303Z,8.15
2019-03-11T02:28:47.678Z,6.78
2019-03-11T02:31:19.453Z,7.03
2019-03-11T02:33:50.925Z,6.55
2019-03-11T02:36:22.498Z,7.95
2019-03-11T02:38:54.222Z,7.37
2019-03-11T02:41:25.656Z,8.15
2019-03-11T02:43:57.399Z,9.38
2019-03-11T02:46:28.949Z,6.60
2019-03-11T02:49:00.435Z,5.35
2019-03-11T02:51:32.159Z,5.90
2019-03-11T02:54:03.629Z,9.60
2019-03-11T02:56:35.249Z,6.33
2019-03-11T02:59:06.707Z,6.00
2019-03-11T03:01:52.169Z,4.65
2019-03-11T03:04:31.686Z,5.83
2019-03-11T03:07:03.182Z,4.67
2019-03-11T03:09:34.735Z,6.03
2019-03-11T03:12:06.399Z,6.53
2019-03-11T03:14:37.989Z,4.53
2019-03-11T03:17:09.215Z,4.50
2019-03-11T03:19:40.924Z,6.53
2019-03-11T03:22:12.467Z,6.97
2019-03-11T03:24:43.919Z,6.55
2019-03-11T03:27:15.465Z,6.70
2019-03-11T03:29:47.069Z,7.37
2019-03-11T03:32:18.616Z,6.60
2019-03-11T03:34:50.297Z,6.03
2019-03-11T03:37:21.502Z,5.55
2019-03-11T03:39:52.903Z,6.60
2019-03-11T03:42:24.472Z,3.83
2019-03-11T03:45:21.849Z,4.40
2019-03-11T03:47:53.429Z,4.65
2019-03-11T03:50:25.132Z,4.05
2019-03-11T03:52:56.733Z,5.97
2019-03-11T03:55:28.350Z,5.62
2019-03-11T03:57:59.618Z,7.45
2019-03-11T04:00:31.476Z,6.47
2019-03-11T04:03:03.148Z,7.03
2019-03-11T04:05:34.815Z,5.35
2019-03-11T04:08:06.519Z,5.78
2019-03-11T04:10:38.218Z,4.30
2019-03-11T04:13:10.001Z,6.87
2019-03-11T04:15:42.587Z,10.08
2019-03-11T04:18:14.240Z,6.08
2019-03-11T04:20:45.862Z,7.00
2019-03-11T04:23:17.517Z,9.68
2019-03-11T04:25:49.290Z,6.55
2019-03-11T04:28:20.833Z,7.72
2019-03-11T04:30:52.312Z,6.53
2019-03-11T04:33:23.903Z,9.00
2019-03-11T04:35:55.231Z,6.85
2019-03-11T04:38:26.836Z,13.85
2019-03-11T04:40:58.474Z,6.90
2019-03-11T04:43:29.948Z,6.92
2019-03-11T04:46:01.461Z,10.45
2019-03-11T04:48:33.007Z,9.90
2019-03-11T04:51:04.567Z,7.50
2019-03-11T04:53:35.986Z,7.05
2019-03-11T04:56:07.207Z,9.05
2019-03-11T04:58:38.853Z,8.78
2019-03-11T05:01:10.405Z,8.03
2019-03-11T05:03:41.767Z,7.87
2019-03-11T05:06:13.020Z,10.08
2019-03-11T05:08:44.806Z,9.45
2019-03-11T05:11:16.475Z,10.58
2019-03-11T05:13:48.217Z,8.63
2019-03-11T05:16:19.892Z,11.12
2019-03-11T05:18:51.442Z,11.83
2019-03-11T05:21:23.058Z,12.15
2019-03-11T05:23:54.908Z,10.20
2019-03-11T05:26:27.089Z,10.45
2019-03-11T05:28:58.392Z,10.98
2019-03-11T05:31:30.119Z,13.10
2019-03-11T05:34:01.729Z,11.15
2019-03-11T05:36:33.169Z,11.15
2019-03-11T05:39:05.680Z,16.77
2019-03-11T05:41:37.377Z,14.13
2019-03-11T05:44:09.079Z,16.40
2019-03-11T05:46:40.643Z,14.30
2019-03-11T05:49:12.046Z,15.78
2019-03-11T05:51:43.792Z,12.75
2019-03-11T05:54:15.339Z,12.58
2019-03-11T05:56:46.694Z,11.30
2019-03-11T05:59:18.278Z,14.35
2019-03-11T06:01:49.748Z,11.22
2019-03-11T06:04:21.284Z,11.10
2019-03-11T06:06:53.160Z,14.95
2019-03-11T06:09:24.349Z,10.93
2019-03-11T06:11:55.769Z,11.63
2019-03-11T06:14:27.067Z,12.20
2019-03-11T06:16:58.442Z,7.70
2019-03-11T06:19:29.676Z,10.40
2019-03-11T06:22:10.607Z,9.43
2019-03-11T06:24:41.767Z,11.53
2019-03-11T06:27:12.997Z,12.53
2019-03-11T06:29:45.238Z,8.03
2019-03-11T06:32:16.336Z,11.13
2019-03-11T06:34:47.558Z,6.50
2019-03-11T06:37:18.989Z,11.63
2019-03-11T06:39:50.196Z,12.07
2019-03-11T06:42:21.476Z,5.93
2019-03-11T06:44:52.430Z,8.67
2019-03-11T06:47:23.617Z,9.27
2019-03-11T06:49:54.660Z,14.97
2019-03-11T06:52:25.616Z,14.23
2019-03-11T06:54:58.095Z,10.23
2019-03-11T06:57:29.442Z,7.63
2019-03-11T07:00:01.784Z,9.13
2019-03-11T07:02:32.936Z,7.13
2019-03-11T07:05:04.245Z,8.63
2019-03-11T07:07:35.610Z,7.43
2019-03-11T07:10:07.800Z,7.90
2019-03-11T07:12:39.040Z,6.37
2019-03-11T07:15:10.989Z,6.97
2019-03-11T07:17:42.514Z,8.07
2019-03-11T07:20:14.001Z,10.30
2019-03-11T07:22:45.490Z,7.93
2019-03-11T07:25:16.904Z,9.33
2019-03-11T07:27:48.263Z,9.63
2019-03-11T07:30:19.777Z,9.33
2019-03-11T07:32:53.144Z,11.23
2019-03-11T07:35:24.689Z,10.90
2019-03-11T07:37:56.069Z,8.07
2019-03-11T07:40:30.077Z,6.03
2019-03-11T07:43:00.723Z,13.97
2019-03-11T07:45:32.113Z,12.10
2019-03-11T07:48:03.135Z,8.77
2019-03-11T07:50:34.496Z,8.10
2019-03-11T07:53:06.030Z,6.33
2019-03-11T07:55:38.483Z,7.40
2019-03-11T07:58:09.784Z,7.50
2019-03-11T08:00:40.967Z,6.93
2019-03-11T08:03:12.486Z,7.33
2019-03-11T08:05:43.902Z,9.93
2019-03-11T08:08:15.343Z,9.23
2019-03-11T08:10:46.873Z,7.17
2019-03-11T08:13:18.232Z,6.33
2019-03-11T08:15:49.775Z,6.20
2019-03-11T08:18:21.241Z,7.33
2019-03-11T08:20:52.253Z,8.97
2019-03-11T08:23:23.712Z,7.43
2019-03-11T08:25:55.080Z,7.83
2019-03-11T08:28:26.313Z,7.90
2019-03-11T08:30:57.648Z,5.23
2019-03-11T08:33:28.944Z,9.27
2019-03-11T08:36:00.325Z,8.80
2019-03-11T08:38:31.590Z,6.50
2019-03-11T08:41:02.879Z,9.20
2019-03-11T08:43:34.223Z,5.37
2019-03-11T08:46:05.600Z,7.00
2019-03-11T08:48:36.776Z,6.87
2019-03-11T08:51:08.242Z,6.57
2019-03-11T08:53:39.277Z,5.80
2019-03-11T08:56:10.429Z,6.30
2019-03-11T08:58:41.806Z,5.20
2019-03-11T09:01:12.987Z,5.17
2019-03-11T09:03:44.196Z,8.87
2019-03-11T09:06:15.290Z,5.80
2019-03-11T09:08:46.479Z,7.47
2019-03-11T09:11:17.753Z,6.10
2019-03-11T09:13:49.405Z,6.13
2019-03-11T09:16:20.998Z,5.93
2019-03-11T09:18:52.418Z,5.80
2019-03-11T09:21:23.688Z,6.00
2019-03-11T09:23:54.953Z,5.27
2019-03-11T09:26:26.443Z,4.87
2019-03-11T09:28:57.514Z,6.60
2019-03-11T09:31:28.782Z,4.63
2019-03-11T09:34:00.091Z,5.70
2019-03-11T09:36:31.359Z,7.73
2019-03-11T09:39:02.720Z,4.30
2019-03-11T09:41:35.564Z,7.33
2019-03-11T09:44:06.856Z,7.40
2019-03-11T09:46:38.150Z,4.67
2019-03-11T09:49:09.578Z,4.57
2019-03-11T09:51:40.945Z,5.40
2019-03-11T09:54:12.357Z,6.37
2019-03-11T09:56:44.205Z,9.30
2019-03-11T09:59:15.690Z,8.27
2019-03-11T10:01:47.044Z,7.70
2019-03-11T10:04:18.378Z,7.47
2019-03-11T10:06:49.763Z,10.40
2019-03-11T10:09:22.473Z,9.80
2019-03-11T10:11:53.902Z,8.87
2019-03-11T10:14:25.352Z,9.27
2019-03-11T10:16:56.996Z,8.70
2019-03-11T10:19:28.338Z,5.50
2019-03-11T10:21:59.792Z,8.60
2019-03-11T10:24:31.267Z,6.47
2019-03-11T10:27:02.524Z,7.33
2019-03-11T10:29:33.902Z,8.00
2019-03-11T10:32:05.244Z,6.13
2019-03-11T10:34:36.740Z,4.93
2019-03-11T10:37:08.030Z,6.73
2019-03-11T10:39:39.407Z,8.77
2019-03-11T10:42:10.489Z,5.50
2019-03-11T10:44:41.775Z,5.10
2019-03-11T10:47:12.856Z,6.20
2019-03-11T10:49:43.983Z,6.23
2019-03-11T10:52:15.288Z,4.33
2019-03-11T10:54:46.779Z,9.13
2019-03-11T10:57:18.171Z,6.93
2019-03-11T10:59:49.496Z,5.60
2019-03-11T11:02:20.863Z,5.47
2019-03-11T11:04:52.197Z,4.73
2019-03-11T11:07:23.709Z,7.57
2019-03-11T11:09:54.994Z,4.97
2019-03-11T11:12:26.224Z,8.87
2019-03-11T11:14:57.676Z,5.50
2019-03-11T11:17:28.979Z,7.37
2019-03-11T11:20:03.650Z,4.97
2019-03-11T11:22:35.054Z,4.03
2019-03-11T11:25:06.839Z,4.93
2019-03-11T11:27:38.327Z,5.83
2019-03-11T11:30:12.760Z,7.50
2019-03-11T11:32:44.068Z,4.23
2019-03-11T11:35:17.044Z,4.73
2019-03-11T11:37:48.625Z,4.50
2019-03-11T11:40:24.258Z,3.03
2019-03-11T11:42:55.927Z,3.43
2019-03-11T11:45:27.268Z,4.63
2019-03-11T11:47:59.763Z,4.57
2019-03-11T11:50:31.115Z,6.43
2019-03-11T11:53:02.074Z,5.57
2019-03-11T11:55:33.242Z,6.17
2019-03-11T11:58:04.201Z,3.30
2019-03-11T12:00:36.173Z,4.50
2019-03-11T12:03:07.235Z,4.17
2019-03-11T12:05:38.223Z,3.23
2019-03-11T12:08:09.359Z,5.23
2019-03-11T12:10:40.433Z,4.50
2019-03-11T12:13:11.609Z,7.30
2019-03-11T12:15:42.869Z,6.20
2019-03-11T12:18:15.698Z,4.83
2019-03-11T12:20:47.110Z,4.90
2019-03-11T12:23:18.759Z,6.77
2019-03-11T12:25:49.835Z,5.53
2019-03-11T12:28:20.884Z,5.13
2019-03-11T12:30:52.044Z,5.03
2019-03-11T12:33:23.317Z,3.57
2019-03-11T12:35:54.540Z,4.23
2019-03-11T12:38:25.803Z,4.77
2019-03-11T12:40:56.983Z,3.30
2019-03-11T12:43:28.268Z,4.70
2019-03-11T12:45:59.271Z,4.03
2019-03-11T12:48:30.688Z,4.13
2019-03-11T12:51:01.779Z,4.37
2019-03-11T12:53:33.297Z,3.33
2019-03-11T12:56:05.795Z,5.00
2019-03-11T12:58:41.401Z,5.47
2019-03-11T13:01:10.010Z,5.20
2019-03-11T13:03:41.409Z,7.57
2019-03-11T13:06:13.050Z,5.77
2019-03-11T13:08:44.306Z,4.83
2019-03-11T13:11:15.632Z,7.10
2019-03-11T13:13:46.832Z,7.27
2019-03-11T13:16:18.209Z,5.57
2019-03-11T13:18:51.195Z,4.67
2019-03-11T13:21:28.261Z,5.10
2019-03-11T13:23:59.560Z,8.90
2019-03-11T13:26:30.862Z,6.53
2019-03-11T13:29:02.175Z,6.73
2019-03-11T13:31:33.440Z,6.47
2019-03-11T13:34:04.997Z,5.23
2019-03-11T13:36:36.497Z,7.80
2019-03-11T13:39:09.743Z,9.13
2019-03-11T13:41:41.257Z,11.90
2019-03-11T13:44:12.823Z,11.33
2019-03-11T13:46:44.064Z,8.57
2019-03-11T13:49:15.257Z,9.60
2019-03-11T13:51:46.752Z,6.60
2019-03-11T13:54:17.780Z,8.13
2019-03-11T13:56:49.089Z,8.40
2019-03-11T13:59:20.519Z,10.03
2019-03-11T14:01:51.945Z,7.53
2019-03-11T14:04:23.375Z,8.43
2019-03-11T14:06:54.756Z,7.53
2019-03-11T14:09:25.912Z,7.93
2019-03-11T14:11:57.149Z,10.50
2019-03-11T14:14:28.344Z,6.03
2019-03-11T14:16:59.679Z,9.83
2019-03-11T14:19:30.933Z,7.97
2019-03-11T14:22:04.898Z,6.30
2019-03-11T14:24:36.206Z,11.50
2019-03-11T14:27:07.448Z,6.40
2019-03-11T14:29:38.939Z,10.10
2019-03-11T14:32:10.629Z,8.90
2019-03-11T14:34:41.891Z,11.17
2019-03-11T14:37:13.503Z,5.63
2019-03-11T14:39:44.939Z,9.80
2019-03-11T14:42:16.247Z,9.57
2019-03-11T14:44:47.409Z,9.73
2019-03-11T14:47:18.634Z,6.87
2019-03-11T14:49:49.708Z,7.10
2019-03-11T14:52:20.941Z,10.57
2019-03-11T14:54:52.292Z,7.83
2019-03-11T14:57:23.757Z,8.67
2019-03-11T14:59:54.877Z,7.40
2019-03-11T15:02:26.154Z,12.40
2019-03-11T15:04:57.611Z,10.97
2019-03-11T15:07:28.979Z,10.10
2019-03-11T15:10:00.059Z,11.73
2019-03-11T15:12:31.851Z,18.92
2019-03-11T15:15:03.759Z,14.18
2019-03-11T15:17:35.132Z,8.83
2019-03-11T15:20:07.161Z,12.80
2019-03-11T15:22:38.882Z,11.38
2019-03-11T15:25:11.979Z,11.53
2019-03-11T15:27:43.433Z,9.23
2019-03-11T15:30:16.589Z,7.12
2019-03-11T15:32:48.201Z,14.60
2019-03-11T15:35:20.593Z,7.97
2019-03-11T15:37:53.219Z,11.78
2019-03-11T15:40:24.595Z,12.45
2019-03-11T15:42:58.451Z,10.75
2019-03-11T15:45:37.987Z,8.83
2019-03-11T15:48:03.643Z,8.95
2019-03-11T15:50:35.438Z,12.13
2019-03-11T15:53:06.902Z,10.32
2019-03-11T15:55:38.681Z,10.30
2019-03-11T15:58:10.104Z,10.23
2019-03-11T16:00:41.807Z,9.33
2019-03-11T16:03:13.571Z,10.32
2019-03-11T16:05:45.055Z,17.05
2019-03-11T16:08:16.673Z,9.40
2019-03-11T16:10:48.086Z,8.68
2019-03-11T16:13:19.622Z,6.37
2019-03-11T16:15:51.278Z,7.92
2019-03-11T16:18:22.799Z,8.08
2019-03-11T16:20:57.145Z,9.70
2019-03-11T16:23:28.448Z,5.97
2019-03-11T16:25:59.919Z,7.08
2019-03-11T16:28:31.540Z,8.18
2019-03-11T16:31:02.908Z,5.90
2019-03-11T16:33:34.339Z,6.10
2019-03-11T16:36:05.626Z,7.90
2019-03-11T16:38:36.972Z,6.80
2019-03-11T16:41:08.502Z,9.15
2019-03-11T16:43:39.764Z,9.00
2019-03-11T16:46:11.285Z,6.53
2019-03-11T16:48:42.745Z,10.70
2019-03-11T16:51:13.985Z,7.65
2019-03-11T16:53:45.216Z,6.75
2019-03-11T16:56:16.888Z,7.97
2019-03-11T16:58:48.071Z,7.42
2019-03-11T17:01:19.383Z,7.47
2019-03-11T17:03:50.753Z,7.97
2019-03-11T17:06:22.429Z,10.05
2019-03-11T17:08:53.906Z,13.00
2019-03-11T17:11:25.283Z,8.05
2019-03-11T17:13:57.567Z,7.47
2019-03-11T17:16:28.735Z,6.97
2019-03-11T17:19:01.407Z,9.58
2019-03-11T17:21:33.047Z,8.80
2019-03-11T17:24:04.538Z,7.75
2019-03-11T17:26:35.816Z,8.93
2019-03-11T17:29:07.101Z,6.87
2019-03-11T17:31:38.617Z,6.20
2019-03-11T17:34:09.993Z,6.33
2019-03-11T17:36:41.456Z,18.12
2019-03-11T17:39:13.108Z,6.95
2019-03-11T17:41:45.402Z,22.62
2019-03-11T17:44:17.165Z,8.25
2019-03-11T17:46:48.730Z,5.30
2019-03-11T17:49:20.211Z,5.58
2019-03-11T17:51:51.836Z,5.33
2019-03-11T17:54:23.329Z,5.22
2019-03-11T17:56:54.796Z,9.63
2019-03-11T17:59:26.196Z,5.25
2019-03-11T18:01:57.882Z,6.22
2019-03-11T18:04:29.313Z,5.92
2019-03-11T18:07:00.867Z,7.10
2019-03-11T18:09:32.307Z,4.80
2019-03-11T18:12:03.972Z,7.72
2019-03-11T18:14:35.498Z,7.70
2019-03-11T18:17:06.982Z,7.80
2019-03-11T18:19:38.238Z,5.30
2019-03-11T18:22:09.582Z,6.60
2019-03-11T18:24:41.036Z,5.03
2019-03-11T18:27:12.509Z,4.50
2019-03-11T18:29:43.953Z,6.05
2019-03-11T18:32:16.498Z,5.28
2019-03-11T18:34:48.009Z,4.87
2019-03-11T18:37:19.384Z,5.58
2019-03-11T18:39:50.646Z,5.65
2019-03-11T18:42:26.282Z,6.65
2019-03-11T18:44:54.995Z,4.70
2019-03-11T18:47:26.448Z,5.33
2019-03-11T18:49:57.703Z,4.03
2019-03-11T18:52:29.406Z,6.20
2019-03-11T18:55:00.868Z,3.98
2019-03-11T18:57:32.031Z,6.72
2019-03-11T19:00:03.645Z,4.37
2019-03-11T19:02:36.819Z,5.10
2019-03-11T19:05:09.699Z,4.72
2019-03-11T19:07:41.237Z,5.15
2019-03-11T19:10:12.960Z,4.55
2019-03-11T19:12:44.440Z,4.58
2019-03-11T19:15:17.641Z,3.80
2019-03-11T19:17:49.224Z,6.90
2019-03-11T19:20:20.842Z,3.45
2019-03-11T19:22:52.444Z,4.50
2019-03-11T19:25:23.948Z,3.95
2019-03-11T19:27:55.701Z,5.50
2019-03-11T19:30:27.327Z,4.90
2019-03-11T19:32:58.876Z,4.05
2019-03-11T19:35:30.419Z,5.33
2019-03-11T19:38:02.205Z,4.20
2019-03-11T19:40:33.667Z,4.00
2019-03-11T19:43:05.220Z,4.42
2019-03-11T19:45:36.922Z,4.40
2019-03-11T19:48:08.751Z,10.80
2019-03-11T19:50:40.123Z,4.90
2019-03-11T19:53:11.777Z,4.50
2019-03-11T19:55:43.517Z,5.40
2019-03-11T19:58:14.969Z,3.92
2019-03-11T20:00:46.501Z,6.92
2019-03-11T20:03:23.977Z,5.03
2019-03-11T20:05:53.806Z,5.05
2019-03-11T20:08:24.292Z,4.50
2019-03-11T20:10:55.802Z,5.25
2019-03-11T20:13:27.320Z,4.30
2019-03-11T20:15:58.660Z,6.30
2019-03-11T20:18:30.436Z,4.55
2019-03-11T20:21:01.988Z,5.80
2019-03-11T20:23:33.686Z,5.30
2019-03-11T20:26:05.361Z,12.88
2019-03-11T20:28:36.760Z,4.20
2019-03-11T20:31:08.338Z,8.28
2019-03-11T20:33:39.908Z,6.78
2019-03-11T20:36:20.862Z,5.45
2019-03-11T20:38:44.609Z,5.40
2019-03-11T20:41:16.466Z,6.03
2019-03-11T20:43:47.766Z,6.30
2019-03-11T20:46:19.167Z,7.85
2019-03-11T20:48:50.607Z,7.22
2019-03-11T20:51:21.849Z,6.00
2019-03-11T20:53:53.218Z,6.70
2019-03-11T20:56:24.427Z,6.42
2019-03-11T20:58:55.813Z,6.47
2019-03-11T21:01:27.756Z,7.92
2019-03-11T21:03:59.284Z,6.97
2019-03-11T21:06:30.818Z,7.45
2019-03-11T21:09:02.361Z,7.33
2019-03-11T21:11:35.555Z,7.72
2019-03-11T21:14:08.829Z,6.65
2019-03-11T21:16:41.326Z,6.22
2019-03-11T21:19:12.617Z,6.55
2019-03-11T21:21:43.842Z,5.78
2019-03-11T21:24:15.570Z,5.62
2019-03-11T21:26:47.309Z,5.83
2019-03-11T21:29:19.011Z,5.67
2019-03-11T21:31:50.695Z,5.67
2019-03-11T21:34:22.894Z,5.22
2019-03-11T21:36:54.594Z,5.53
2019-03-11T21:39:26.159Z,5.78
2019-03-11T21:41:57.788Z,5.65
2019-03-11T21:44:29.432Z,6.33
2019-03-11T21:47:00.772Z,6.00
2019-03-11T21:49:32.192Z,6.78
2019-03-11T21:52:03.695Z,6.30
2019-03-11T21:54:35.432Z,5.92
2019-03-11T21:57:07.247Z,5.97
2019-03-11T21:59:38.969Z,5.37
2019-03-11T22:02:10.533Z,5.45
2019-03-11T22:04:41.829Z,4.95
2019-03-11T22:07:13.621Z,6.30
2019-03-11T22:09:45.366Z,5.15
2019-03-11T22:12:17.063Z,5.15
2019-03-11T22:14:48.628Z,4.83
2019-03-11T22:17:20.218Z,4.92
2019-03-11T22:19:51.969Z,5.40
2019-03-11T22:22:23.432Z,5.90
2019-03-11T22:24:54.809Z,5.25
2019-03-11T22:27:26.145Z,4.20
2019-03-11T22:29:57.797Z,4.40
2019-03-11T22:32:29.208Z,4.75
2019-03-11T22:35:12.194Z,5.10
2019-03-11T22:37:33.824Z,5.30
2019-03-11T22:40:06.074Z,4.72
2019-03-11T22:42:37.695Z,5.53
2019-03-11T22:45:10.245Z,5.12
2019-03-11T22:47:41.631Z,4.65
2019-03-11T22:50:13.083Z,4.97
2019-03-11T22:52:44.735Z,5.30
2019-03-11T22:55:17.088Z,4.95
2019-03-11T22:57:48.911Z,4.65
2019-03-11T23:00:32.646Z,5.87
2019-03-11T23:03:06.945Z,4.83
2019-03-11T23:05:56.513Z,4.45
2019-03-11T23:08:13.119Z,4.25
2019-03-11T23:10:44.834Z,4.25
2019-03-11T23:13:16.591Z,4.40
2019-03-11T23:15:48.172Z,4.37
2019-03-11T23:18:19.593Z,4.60
2019-03-11T23:20:51.029Z,4.12
2019-03-11T23:23:22.242Z,4.00
2019-03-11T23:25:53.618Z,3.87
2019-03-11T23:28:25.355Z,3.75
2019-03-11T23:30:57.196Z,3.60
2019-03-11T23:33:28.731Z,3.42
2019-03-11T23:36:00.072Z,3.10
2019-03-11T23:38:31.471Z,3.00
2019-03-11T23:41:02.914Z,2.90
2019-03-11T23:43:34.446Z,2.67
2019-03-11T23:46:05.772Z,3.10
2019-03-11T23:48:37.053Z,2.85
2019-03-11T23:51:08.270Z,2.50
2019-03-11T23:53:39.571Z,3.12
2019-03-11T23:56:10.973Z,3.30
2019-03-11T23:58:42.196Z,3.10
